sensor_id;sensor_type;location;lat;lon;timestamp;P1;durP1;ratioP1;P2;durP2;ratioP2
9420;SDS011;4749;51.398;5.466;2023-10-31T00:00:22;10.50;;;7.40;;
9420;SDS011;4749;51.398;5.466;2023-10-31T00:02:49;12.67;;;7.27;;
9420;SDS011;4749;51.398;5.466;2023-10-31T00:05:16;10.53;;;7.00;;
9420;SDS011;4749;51.398;5.466;2023-10-31T00:07:47;10.33;;;5.50;;
9420;SDS011;4749;51.398;5.466;2023-10-31T00:10:14;14.57;;;6.17;;
9420;SDS011;4749;51.398;5.466;2023-10-31T00:12:42;11.50;;;6.33;;
9420;SDS011;4749;51.398;5.466;2023-10-31T00:15:09;9.40;;;5.67;;
9420;SDS011;4749;51.398;5.466;2023-10-31T00:17:36;7.33;;;4.60;;
9420;SDS011;4749;51.398;5.466;2023-10-31T00:20:03;7.23;;;4.10;;
9420;SDS011;4749;51.398;5.466;2023-10-31T00:22:32;6.73;;;3.83;;
9420;SDS011;4749;51.398;5.466;2023-10-31T00:24:59;7.87;;;3.57;;
9420;SDS011;4749;51.398;5.466;2023-10-31T00:27:26;6.47;;;3.67;;
9420;SDS011;4749;51.398;5.466;2023-10-31T00:29:53;8.13;;;3.20;;
9420;SDS011;4749;51.398;5.466;2023-10-31T00:32:20;8.63;;;3.13;;
9420;SDS011;4749;51.398;5.466;2023-10-31T00:34:47;7.10;;;3.07;;
9420;SDS011;4749;51.398;5.466;2023-10-31T00:37:14;7.23;;;2.90;;
9420;SDS011;4749;51.398;5.466;2023-10-31T00:39:42;8.27;;;3.40;;
9420;SDS011;4749;51.398;5.466;2023-10-31T00:42:09;9.63;;;3.33;;
9420;SDS011;4749;51.398;5.466;2023-10-31T00:44:36;7.97;;;3.83;;
9420;SDS011;4749;51.398;5.466;2023-10-31T00:47:03;7.00;;;3.33;;
9420;SDS011;4749;51.398;5.466;2023-10-31T00:49:31;14.20;;;5.83;;
9420;SDS011;4749;51.398;5.466;2023-10-31T00:51:58;10.93;;;5.53;;
9420;SDS011;4749;51.398;5.466;2023-10-31T00:54:26;12.87;;;7.30;;
9420;SDS011;4749;51.398;5.466;2023-10-31T00:56:53;15.87;;;7.23;;
9420;SDS011;4749;51.398;5.466;2023-10-31T00:59:20;15.80;;;8.27;;
9420;SDS011;4749;51.398;5.466;2023-10-31T01:01:47;14.77;;;9.20;;
9420;SDS011;4749;51.398;5.466;2023-10-31T01:04:14;18.33;;;11.27;;
9420;SDS011;4749;51.398;5.466;2023-10-31T01:06:41;20.87;;;11.10;;
9420;SDS011;4749;51.398;5.466;2023-10-31T01:09:09;25.03;;;12.33;;
9420;SDS011;4749;51.398;5.466;2023-10-31T01:11:36;22.33;;;13.67;;
9420;SDS011;4749;51.398;5.466;2023-10-31T01:14:04;26.27;;;14.83;;
9420;SDS011;4749;51.398;5.466;2023-10-31T01:16:31;24.80;;;14.77;;
9420;SDS011;4749;51.398;5.466;2023-10-31T01:18:58;27.30;;;15.63;;
9420;SDS011;4749;51.398;5.466;2023-10-31T01:21:26;25.67;;;15.77;;
9420;SDS011;4749;51.398;5.466;2023-10-31T01:23:53;30.50;;;17.07;;
9420;SDS011;4749;51.398;5.466;2023-10-31T01:26:20;28.17;;;16.83;;
9420;SDS011;4749;51.398;5.466;2023-10-31T01:28:47;26.73;;;16.73;;
9420;SDS011;4749;51.398;5.466;2023-10-31T01:31:14;28.07;;;18.37;;
9420;SDS011;4749;51.398;5.466;2023-10-31T01:33:41;29.63;;;18.33;;
9420;SDS011;4749;51.398;5.466;2023-10-31T01:36:09;30.43;;;17.40;;
9420;SDS011;4749;51.398;5.466;2023-10-31T01:38:38;29.50;;;16.67;;
9420;SDS011;4749;51.398;5.466;2023-10-31T01:41:06;31.10;;;17.27;;
9420;SDS011;4749;51.398;5.466;2023-10-31T01:43:33;28.13;;;16.87;;
9420;SDS011;4749;51.398;5.466;2023-10-31T01:46:03;28.83;;;16.30;;
9420;SDS011;4749;51.398;5.466;2023-10-31T01:48:31;27.53;;;16.60;;
9420;SDS011;4749;51.398;5.466;2023-10-31T01:51:01;25.33;;;16.40;;
9420;SDS011;4749;51.398;5.466;2023-10-31T01:53:31;26.97;;;16.47;;
9420;SDS011;4749;51.398;5.466;2023-10-31T01:56:00;27.60;;;15.73;;
9420;SDS011;4749;51.398;5.466;2023-10-31T01:58:36;25.88;;;15.93;;
9420;SDS011;4749;51.398;5.466;2023-10-31T02:01:04;25.30;;;15.33;;
9420;SDS011;4749;51.398;5.466;2023-10-31T02:03:33;25.23;;;15.88;;
9420;SDS011;4749;51.398;5.466;2023-10-31T02:06:00;25.20;;;16.20;;
9420;SDS011;4749;51.398;5.466;2023-10-31T02:08:29;23.70;;;14.87;;
9420;SDS011;4749;51.398;5.466;2023-10-31T02:10:56;29.47;;;16.67;;
9420;SDS011;4749;51.398;5.466;2023-10-31T02:13:23;28.70;;;16.03;;
9420;SDS011;4749;51.398;5.466;2023-10-31T02:15:51;30.00;;;16.80;;
9420;SDS011;4749;51.398;5.466;2023-10-31T02:18:18;29.03;;;16.87;;
9420;SDS011;4749;51.398;5.466;2023-10-31T02:20:45;25.63;;;16.20;;
9420;SDS011;4749;51.398;5.466;2023-10-31T02:23:15;29.77;;;16.47;;
9420;SDS011;4749;51.398;5.466;2023-10-31T02:25:43;28.92;;;16.90;;
9420;SDS011;4749;51.398;5.466;2023-10-31T02:28:10;26.30;;;15.90;;
9420;SDS011;4749;51.398;5.466;2023-10-31T02:30:37;28.43;;;17.80;;
9420;SDS011;4749;51.398;5.466;2023-10-31T02:33:05;26.30;;;16.70;;
9420;SDS011;4749;51.398;5.466;2023-10-31T02:35:32;24.45;;;16.60;;
9420;SDS011;4749;51.398;5.466;2023-10-31T02:37:59;27.10;;;17.70;;
9420;SDS011;4749;51.398;5.466;2023-10-31T02:40:27;23.10;;;15.30;;
9420;SDS011;4749;51.398;5.466;2023-10-31T02:42:54;27.17;;;16.47;;
9420;SDS011;4749;51.398;5.466;2023-10-31T02:45:21;25.63;;;16.40;;
9420;SDS011;4749;51.398;5.466;2023-10-31T02:47:48;27.27;;;16.30;;
9420;SDS011;4749;51.398;5.466;2023-10-31T02:50:16;27.43;;;15.93;;
9420;SDS011;4749;51.398;5.466;2023-10-31T02:52:43;28.73;;;16.38;;
9420;SDS011;4749;51.398;5.466;2023-10-31T02:55:10;27.00;;;15.13;;
9420;SDS011;4749;51.398;5.466;2023-10-31T02:57:37;27.10;;;15.67;;
9420;SDS011;4749;51.398;5.466;2023-10-31T03:00:04;22.77;;;15.17;;
9420;SDS011;4749;51.398;5.466;2023-10-31T03:02:32;28.87;;;15.90;;
9420;SDS011;4749;51.398;5.466;2023-10-31T03:04:59;26.15;;;15.73;;
9420;SDS011;4749;51.398;5.466;2023-10-31T03:07:27;27.23;;;15.98;;
9420;SDS011;4749;51.398;5.466;2023-10-31T03:09:54;29.80;;;14.83;;
9420;SDS011;4749;51.398;5.466;2023-10-31T03:12:21;22.97;;;14.40;;
9420;SDS011;4749;51.398;5.466;2023-10-31T03:14:48;28.40;;;16.80;;
9420;SDS011;4749;51.398;5.466;2023-10-31T03:17:15;25.52;;;15.15;;
9420;SDS011;4749;51.398;5.466;2023-10-31T03:19:42;26.47;;;15.30;;
9420;SDS011;4749;51.398;5.466;2023-10-31T03:22:09;24.83;;;14.57;;
9420;SDS011;4749;51.398;5.466;2023-10-31T03:24:37;25.20;;;14.90;;
9420;SDS011;4749;51.398;5.466;2023-10-31T03:27:04;23.73;;;14.57;;
9420;SDS011;4749;51.398;5.466;2023-10-31T03:29:31;22.37;;;14.37;;
9420;SDS011;4749;51.398;5.466;2023-10-31T03:31:58;24.75;;;14.45;;
9420;SDS011;4749;51.398;5.466;2023-10-31T03:34:26;23.40;;;15.57;;
9420;SDS011;4749;51.398;5.466;2023-10-31T03:36:53;21.37;;;14.73;;
9420;SDS011;4749;51.398;5.466;2023-10-31T03:39:20;26.77;;;15.80;;
9420;SDS011;4749;51.398;5.466;2023-10-31T03:41:47;23.77;;;15.60;;
9420;SDS011;4749;51.398;5.466;2023-10-31T03:44:14;23.00;;;15.20;;
9420;SDS011;4749;51.398;5.466;2023-10-31T03:46:41;22.13;;;15.47;;
9420;SDS011;4749;51.398;5.466;2023-10-31T03:49:09;24.23;;;15.60;;
9420;SDS011;4749;51.398;5.466;2023-10-31T03:51:36;22.70;;;15.07;;
9420;SDS011;4749;51.398;5.466;2023-10-31T03:54:03;23.33;;;15.65;;
9420;SDS011;4749;51.398;5.466;2023-10-31T03:56:30;20.63;;;14.68;;
9420;SDS011;4749;51.398;5.466;2023-10-31T03:59:04;23.23;;;15.93;;
9420;SDS011;4749;51.398;5.466;2023-10-31T04:01:31;21.10;;;14.75;;
9420;SDS011;4749;51.398;5.466;2023-10-31T04:03:58;21.40;;;14.57;;
9420;SDS011;4749;51.398;5.466;2023-10-31T04:06:25;20.73;;;13.52;;
9420;SDS011;4749;51.398;5.466;2023-10-31T04:08:52;20.30;;;13.80;;
9420;SDS011;4749;51.398;5.466;2023-10-31T04:11:20;20.53;;;14.67;;
9420;SDS011;4749;51.398;5.466;2023-10-31T04:13:47;17.20;;;12.83;;
9420;SDS011;4749;51.398;5.466;2023-10-31T04:16:15;17.10;;;12.37;;
9420;SDS011;4749;51.398;5.466;2023-10-31T04:18:42;17.13;;;11.97;;
9420;SDS011;4749;51.398;5.466;2023-10-31T04:21:10;18.00;;;12.77;;
9420;SDS011;4749;51.398;5.466;2023-10-31T04:23:37;18.50;;;13.37;;
9420;SDS011;4749;51.398;5.466;2023-10-31T04:26:05;16.70;;;13.03;;
9420;SDS011;4749;51.398;5.466;2023-10-31T04:28:33;15.00;;;12.15;;
9420;SDS011;4749;51.398;5.466;2023-10-31T04:31:00;16.60;;;11.63;;
9420;SDS011;4749;51.398;5.466;2023-10-31T04:33:27;14.82;;;11.88;;
9420;SDS011;4749;51.398;5.466;2023-10-31T04:35:54;18.10;;;11.57;;
9420;SDS011;4749;51.398;5.466;2023-10-31T04:38:21;15.35;;;11.95;;
9420;SDS011;4749;51.398;5.466;2023-10-31T04:40:48;14.10;;;11.13;;
9420;SDS011;4749;51.398;5.466;2023-10-31T04:43:15;16.23;;;11.48;;
9420;SDS011;4749;51.398;5.466;2023-10-31T04:45:43;17.20;;;11.63;;
9420;SDS011;4749;51.398;5.466;2023-10-31T04:48:10;17.13;;;13.03;;
9420;SDS011;4749;51.398;5.466;2023-10-31T04:50:38;18.33;;;12.68;;
9420;SDS011;4749;51.398;5.466;2023-10-31T04:53:06;17.70;;;13.75;;
9420;SDS011;4749;51.398;5.466;2023-10-31T04:55:34;16.10;;;12.30;;
9420;SDS011;4749;51.398;5.466;2023-10-31T04:58:01;18.10;;;13.35;;
9420;SDS011;4749;51.398;5.466;2023-10-31T05:00:29;19.55;;;13.68;;
9420;SDS011;4749;51.398;5.466;2023-10-31T05:03:00;19.00;;;13.60;;
9420;SDS011;4749;51.398;5.466;2023-10-31T05:05:29;22.13;;;14.90;;
9420;SDS011;4749;51.398;5.466;2023-10-31T05:07:56;22.13;;;13.70;;
9420;SDS011;4749;51.398;5.466;2023-10-31T05:10:24;21.60;;;15.48;;
9420;SDS011;4749;51.398;5.466;2023-10-31T05:12:51;20.30;;;14.60;;
9420;SDS011;4749;51.398;5.466;2023-10-31T05:15:19;18.80;;;14.77;;
9420;SDS011;4749;51.398;5.466;2023-10-31T05:17:46;22.70;;;14.93;;
9420;SDS011;4749;51.398;5.466;2023-10-31T05:20:14;17.93;;;14.70;;
9420;SDS011;4749;51.398;5.466;2023-10-31T05:22:41;18.73;;;13.97;;
9420;SDS011;4749;51.398;5.466;2023-10-31T05:25:08;20.53;;;14.57;;
9420;SDS011;4749;51.398;5.466;2023-10-31T05:27:36;18.30;;;13.57;;
9420;SDS011;4749;51.398;5.466;2023-10-31T05:30:03;17.70;;;13.77;;
9420;SDS011;4749;51.398;5.466;2023-10-31T05:32:30;17.53;;;12.97;;
9420;SDS011;4749;51.398;5.466;2023-10-31T05:34:58;17.97;;;13.10;;
9420;SDS011;4749;51.398;5.466;2023-10-31T05:37:26;18.83;;;13.80;;
9420;SDS011;4749;51.398;5.466;2023-10-31T05:39:53;20.50;;;14.97;;
9420;SDS011;4749;51.398;5.466;2023-10-31T05:42:20;18.60;;;14.63;;
9420;SDS011;4749;51.398;5.466;2023-10-31T05:44:47;19.30;;;14.83;;
9420;SDS011;4749;51.398;5.466;2023-10-31T05:47:15;24.53;;;15.30;;
9420;SDS011;4749;51.398;5.466;2023-10-31T05:49:43;20.30;;;14.20;;
9420;SDS011;4749;51.398;5.466;2023-10-31T05:52:10;19.67;;;13.87;;
9420;SDS011;4749;51.398;5.466;2023-10-31T05:54:37;17.97;;;12.87;;
9420;SDS011;4749;51.398;5.466;2023-10-31T05:57:04;21.67;;;13.90;;
9420;SDS011;4749;51.398;5.466;2023-10-31T05:59:32;18.43;;;13.23;;
9420;SDS011;4749;51.398;5.466;2023-10-31T06:02:00;18.20;;;12.53;;
9420;SDS011;4749;51.398;5.466;2023-10-31T06:04:27;19.37;;;13.80;;
9420;SDS011;4749;51.398;5.466;2023-10-31T06:06:54;19.47;;;13.23;;
9420;SDS011;4749;51.398;5.466;2023-10-31T06:09:22;18.40;;;13.57;;
9420;SDS011;4749;51.398;5.466;2023-10-31T06:11:49;19.50;;;13.77;;
9420;SDS011;4749;51.398;5.466;2023-10-31T06:14:16;21.73;;;13.30;;
9420;SDS011;4749;51.398;5.466;2023-10-31T06:16:43;19.97;;;14.00;;
9420;SDS011;4749;51.398;5.466;2023-10-31T06:19:11;19.60;;;14.20;;
9420;SDS011;4749;51.398;5.466;2023-10-31T06:21:38;23.23;;;15.70;;
9420;SDS011;4749;51.398;5.466;2023-10-31T06:24:06;19.23;;;14.23;;
9420;SDS011;4749;51.398;5.466;2023-10-31T06:26:34;21.63;;;14.70;;
9420;SDS011;4749;51.398;5.466;2023-10-31T06:29:02;22.25;;;15.52;;
9420;SDS011;4749;51.398;5.466;2023-10-31T06:31:34;22.47;;;15.90;;
9420;SDS011;4749;51.398;5.466;2023-10-31T06:34:01;24.50;;;15.70;;
9420;SDS011;4749;51.398;5.466;2023-10-31T06:36:29;18.53;;;13.93;;
9420;SDS011;4749;51.398;5.466;2023-10-31T06:38:56;19.87;;;14.70;;
9420;SDS011;4749;51.398;5.466;2023-10-31T06:41:23;20.37;;;14.03;;
9420;SDS011;4749;51.398;5.466;2023-10-31T06:43:51;22.47;;;14.07;;
9420;SDS011;4749;51.398;5.466;2023-10-31T06:46:18;18.67;;;13.60;;
9420;SDS011;4749;51.398;5.466;2023-10-31T06:48:45;17.80;;;13.40;;
9420;SDS011;4749;51.398;5.466;2023-10-31T06:51:12;20.90;;;13.30;;
9420;SDS011;4749;51.398;5.466;2023-10-31T06:53:39;15.60;;;11.90;;
9420;SDS011;4749;51.398;5.466;2023-10-31T06:56:07;16.47;;;11.97;;
9420;SDS011;4749;51.398;5.466;2023-10-31T06:58:34;16.33;;;11.20;;
9420;SDS011;4749;51.398;5.466;2023-10-31T07:01:01;15.00;;;10.33;;
9420;SDS011;4749;51.398;5.466;2023-10-31T07:03:29;17.47;;;10.00;;
9420;SDS011;4749;51.398;5.466;2023-10-31T07:05:57;14.43;;;10.47;;
9420;SDS011;4749;51.398;5.466;2023-10-31T07:08:25;14.87;;;10.47;;
9420;SDS011;4749;51.398;5.466;2023-10-31T07:10:52;9.85;;;8.50;;
9420;SDS011;4749;51.398;5.466;2023-10-31T07:13:19;12.37;;;8.93;;
9420;SDS011;4749;51.398;5.466;2023-10-31T07:15:47;11.98;;;9.02;;
9420;SDS011;4749;51.398;5.466;2023-10-31T07:18:14;10.82;;;8.52;;
9420;SDS011;4749;51.398;5.466;2023-10-31T07:20:41;13.13;;;9.20;;
9420;SDS011;4749;51.398;5.466;2023-10-31T07:23:08;12.40;;;9.43;;
9420;SDS011;4749;51.398;5.466;2023-10-31T07:25:36;12.80;;;9.43;;
9420;SDS011;4749;51.398;5.466;2023-10-31T07:28:03;14.20;;;9.53;;
9420;SDS011;4749;51.398;5.466;2023-10-31T07:30:30;12.47;;;9.57;;
9420;SDS011;4749;51.398;5.466;2023-10-31T07:32:57;16.07;;;9.90;;
9420;SDS011;4749;51.398;5.466;2023-10-31T07:35:25;14.48;;;10.25;;
9420;SDS011;4749;51.398;5.466;2023-10-31T07:37:52;20.63;;;11.27;;
9420;SDS011;4749;51.398;5.466;2023-10-31T07:40:19;15.17;;;10.80;;
9420;SDS011;4749;51.398;5.466;2023-10-31T07:42:46;13.75;;;11.18;;
9420;SDS011;4749;51.398;5.466;2023-10-31T07:45:13;13.57;;;11.00;;
9420;SDS011;4749;51.398;5.466;2023-10-31T07:47:41;15.05;;;11.35;;
9420;SDS011;4749;51.398;5.466;2023-10-31T07:50:08;16.55;;;12.00;;
9420;SDS011;4749;51.398;5.466;2023-10-31T07:52:36;17.65;;;12.20;;
9420;SDS011;4749;51.398;5.466;2023-10-31T07:55:03;16.33;;;12.83;;
9420;SDS011;4749;51.398;5.466;2023-10-31T07:57:30;16.27;;;12.67;;
9420;SDS011;4749;51.398;5.466;2023-10-31T07:59:58;21.33;;;12.98;;
9420;SDS011;4749;51.398;5.466;2023-10-31T08:02:30;17.05;;;13.35;;
9420;SDS011;4749;51.398;5.466;2023-10-31T08:05:01;22.70;;;14.50;;
9420;SDS011;4749;51.398;5.466;2023-10-31T08:07:29;20.10;;;13.55;;
9420;SDS011;4749;51.398;5.466;2023-10-31T08:09:56;19.63;;;13.98;;
9420;SDS011;4749;51.398;5.466;2023-10-31T08:12:23;19.58;;;13.65;;
9420;SDS011;4749;51.398;5.466;2023-10-31T08:14:51;18.98;;;13.98;;
9420;SDS011;4749;51.398;5.466;2023-10-31T08:17:18;22.80;;;14.80;;
9420;SDS011;4749;51.398;5.466;2023-10-31T08:19:46;18.20;;;12.95;;
9420;SDS011;4749;51.398;5.466;2023-10-31T08:22:14;19.83;;;13.43;;
9420;SDS011;4749;51.398;5.466;2023-10-31T08:24:41;22.50;;;12.68;;
9420;SDS011;4749;51.398;5.466;2023-10-31T08:27:08;19.95;;;12.20;;
9420;SDS011;4749;51.398;5.466;2023-10-31T08:29:36;16.58;;;12.00;;
9420;SDS011;4749;51.398;5.466;2023-10-31T08:32:03;16.33;;;11.85;;
9420;SDS011;4749;51.398;5.466;2023-10-31T08:34:32;18.33;;;11.60;;
9420;SDS011;4749;51.398;5.466;2023-10-31T08:36:59;19.13;;;11.18;;
9420;SDS011;4749;51.398;5.466;2023-10-31T08:39:26;18.45;;;11.23;;
9420;SDS011;4749;51.398;5.466;2023-10-31T08:41:54;16.15;;;11.98;;
9420;SDS011;4749;51.398;5.466;2023-10-31T08:44:23;16.27;;;12.43;;
9420;SDS011;4749;51.398;5.466;2023-10-31T08:46:50;19.15;;;12.00;;
9420;SDS011;4749;51.398;5.466;2023-10-31T08:49:18;14.93;;;11.43;;
9420;SDS011;4749;51.398;5.466;2023-10-31T08:51:45;14.77;;;10.45;;
9420;SDS011;4749;51.398;5.466;2023-10-31T08:54:12;14.13;;;10.63;;
9420;SDS011;4749;51.398;5.466;2023-10-31T08:56:39;13.57;;;10.15;;
9420;SDS011;4749;51.398;5.466;2023-10-31T08:59:07;12.48;;;10.20;;
9420;SDS011;4749;51.398;5.466;2023-10-31T09:01:34;18.65;;;10.95;;
9420;SDS011;4749;51.398;5.466;2023-10-31T09:04:01;13.48;;;10.80;;
9420;SDS011;4749;51.398;5.466;2023-10-31T09:06:29;15.27;;;10.90;;
9420;SDS011;4749;51.398;5.466;2023-10-31T09:08:56;15.35;;;11.07;;
9420;SDS011;4749;51.398;5.466;2023-10-31T09:11:23;15.88;;;10.55;;
9420;SDS011;4749;51.398;5.466;2023-10-31T09:13:50;15.27;;;11.80;;
9420;SDS011;4749;51.398;5.466;2023-10-31T09:16:17;14.55;;;10.13;;
9420;SDS011;4749;51.398;5.466;2023-10-31T09:18:44;14.20;;;9.80;;
9420;SDS011;4749;51.398;5.466;2023-10-31T09:21:13;19.38;;;10.35;;
9420;SDS011;4749;51.398;5.466;2023-10-31T09:23:40;14.20;;;9.90;;
9420;SDS011;4749;51.398;5.466;2023-10-31T09:26:08;15.40;;;10.25;;
9420;SDS011;4749;51.398;5.466;2023-10-31T09:28:35;17.13;;;10.23;;
9420;SDS011;4749;51.398;5.466;2023-10-31T09:31:05;16.40;;;9.70;;
9420;SDS011;4749;51.398;5.466;2023-10-31T09:33:33;12.93;;;9.60;;
9420;SDS011;4749;51.398;5.466;2023-10-31T09:36:00;14.75;;;9.63;;
9420;SDS011;4749;51.398;5.466;2023-10-31T09:38:28;14.40;;;9.57;;
9420;SDS011;4749;51.398;5.466;2023-10-31T09:40:55;12.90;;;9.40;;
9420;SDS011;4749;51.398;5.466;2023-10-31T09:43:22;14.50;;;9.52;;
9420;SDS011;4749;51.398;5.466;2023-10-31T09:45:49;16.42;;;10.07;;
9420;SDS011;4749;51.398;5.466;2023-10-31T09:48:19;14.38;;;9.27;;
9420;SDS011;4749;51.398;5.466;2023-10-31T09:50:46;12.25;;;8.85;;
9420;SDS011;4749;51.398;5.466;2023-10-31T09:53:14;14.02;;;9.40;;
9420;SDS011;4749;51.398;5.466;2023-10-31T09:55:46;13.07;;;9.70;;
9420;SDS011;4749;51.398;5.466;2023-10-31T09:58:14;12.30;;;9.30;;
9420;SDS011;4749;51.398;5.466;2023-10-31T10:00:41;11.90;;;9.40;;
9420;SDS011;4749;51.398;5.466;2023-10-31T10:03:08;17.58;;;8.80;;
9420;SDS011;4749;51.398;5.466;2023-10-31T10:05:36;12.63;;;9.43;;
9420;SDS011;4749;51.398;5.466;2023-10-31T10:08:06;13.82;;;9.65;;
9420;SDS011;4749;51.398;5.466;2023-10-31T10:10:35;10.52;;;8.35;;
9420;SDS011;4749;51.398;5.466;2023-10-31T10:13:02;11.88;;;9.57;;
9420;SDS011;4749;51.398;5.466;2023-10-31T10:15:30;11.82;;;9.10;;
9420;SDS011;4749;51.398;5.466;2023-10-31T10:18:19;11.75;;;9.07;;
9420;SDS011;4749;51.398;5.466;2023-10-31T10:20:59;12.38;;;9.10;;
9420;SDS011;4749;51.398;5.466;2023-10-31T10:23:32;12.23;;;8.73;;
9420;SDS011;4749;51.398;5.466;2023-10-31T10:26:02;11.05;;;8.75;;
9420;SDS011;4749;51.398;5.466;2023-10-31T10:28:29;12.98;;;9.32;;
9420;SDS011;4749;51.398;5.466;2023-10-31T10:30:57;13.10;;;9.00;;
9420;SDS011;4749;51.398;5.466;2023-10-31T10:33:25;15.27;;;8.82;;
9420;SDS011;4749;51.398;5.466;2023-10-31T10:35:52;11.82;;;9.05;;
9420;SDS011;4749;51.398;5.466;2023-10-31T10:38:22;11.70;;;8.93;;
9420;SDS011;4749;51.398;5.466;2023-10-31T10:40:49;12.45;;;8.77;;
9420;SDS011;4749;51.398;5.466;2023-10-31T10:43:21;11.73;;;8.57;;
9420;SDS011;4749;51.398;5.466;2023-10-31T10:45:56;12.57;;;7.93;;
9420;SDS011;4749;51.398;5.466;2023-10-31T10:48:26;11.63;;;8.40;;
9420;SDS011;4749;51.398;5.466;2023-10-31T10:50:59;13.85;;;8.02;;
9420;SDS011;4749;51.398;5.466;2023-10-31T10:53:49;11.15;;;7.90;;
9420;SDS011;4749;51.398;5.466;2023-10-31T10:57:14;9.43;;;6.82;;
9420;SDS011;4749;51.398;5.466;2023-10-31T10:59:42;8.95;;;6.70;;
9420;SDS011;4749;51.398;5.466;2023-10-31T11:02:17;10.18;;;7.40;;
9420;SDS011;4749;51.398;5.466;2023-10-31T11:04:45;10.57;;;6.47;;
9420;SDS011;4749;51.398;5.466;2023-10-31T11:07:13;17.00;;;6.57;;
9420;SDS011;4749;51.398;5.466;2023-10-31T11:09:45;8.00;;;6.45;;
9420;SDS011;4749;51.398;5.466;2023-10-31T11:12:13;9.20;;;6.50;;
9420;SDS011;4749;51.398;5.466;2023-10-31T11:14:42;7.35;;;5.75;;
9420;SDS011;4749;51.398;5.466;2023-10-31T11:17:31;6.78;;;5.28;;
9420;SDS011;4749;51.398;5.466;2023-10-31T11:20:01;6.80;;;5.00;;
9420;SDS011;4749;51.398;5.466;2023-10-31T11:22:36;5.72;;;5.05;;
9420;SDS011;4749;51.398;5.466;2023-10-31T11:25:12;5.95;;;4.20;;
9420;SDS011;4749;51.398;5.466;2023-10-31T11:27:56;7.50;;;3.83;;
9420;SDS011;4749;51.398;5.466;2023-10-31T11:30:39;5.55;;;4.30;;
9420;SDS011;4749;51.398;5.466;2023-10-31T11:33:15;8.93;;;4.35;;
9420;SDS011;4749;51.398;5.466;2023-10-31T11:35:49;6.13;;;4.13;;
9420;SDS011;4749;51.398;5.466;2023-10-31T11:38:18;6.32;;;3.50;;
9420;SDS011;4749;51.398;5.466;2023-10-31T11:41:00;4.93;;;3.13;;
9420;SDS011;4749;51.398;5.466;2023-10-31T11:46:06;3.83;;;2.70;;
9420;SDS011;4749;51.398;5.466;2023-10-31T11:48:48;6.15;;;2.95;;
9420;SDS011;4749;51.398;5.466;2023-10-31T11:51:17;5.82;;;2.83;;
9420;SDS011;4749;51.398;5.466;2023-10-31T11:53:46;3.55;;;2.38;;
9420;SDS011;4749;51.398;5.466;2023-10-31T11:56:18;4.82;;;2.22;;
9420;SDS011;4749;51.398;5.466;2023-10-31T11:59:03;4.00;;;1.95;;
9420;SDS011;4749;51.398;5.466;2023-10-31T12:01:33;5.10;;;1.90;;
9420;SDS011;4749;51.398;5.466;2023-10-31T12:04:10;4.72;;;2.08;;
9420;SDS011;4749;51.398;5.466;2023-10-31T12:06:56;4.00;;;2.13;;
9420;SDS011;4749;51.398;5.466;2023-10-31T12:09:26;2.85;;;1.80;;
9420;SDS011;4749;51.398;5.466;2023-10-31T12:11:57;3.92;;;2.00;;
9420;SDS011;4749;51.398;5.466;2023-10-31T12:14:24;4.82;;;2.08;;
9420;SDS011;4749;51.398;5.466;2023-10-31T12:16:52;5.45;;;2.00;;
9420;SDS011;4749;51.398;5.466;2023-10-31T12:19:20;2.17;;;1.58;;
9420;SDS011;4749;51.398;5.466;2023-10-31T12:21:47;4.68;;;1.75;;
9420;SDS011;4749;51.398;5.466;2023-10-31T12:24:17;3.22;;;1.60;;
9420;SDS011;4749;51.398;5.466;2023-10-31T12:26:46;3.42;;;1.88;;
9420;SDS011;4749;51.398;5.466;2023-10-31T12:29:14;3.33;;;1.52;;
9420;SDS011;4749;51.398;5.466;2023-10-31T12:34:14;2.70;;;1.73;;
9420;SDS011;4749;51.398;5.466;2023-10-31T12:36:43;3.13;;;1.65;;
9420;SDS011;4749;51.398;5.466;2023-10-31T12:39:16;4.78;;;1.67;;
9420;SDS011;4749;51.398;5.466;2023-10-31T12:41:47;3.38;;;2.25;;
9420;SDS011;4749;51.398;5.466;2023-10-31T12:44:17;6.60;;;2.47;;
9420;SDS011;4749;51.398;5.466;2023-10-31T12:46:51;5.03;;;2.13;;
9420;SDS011;4749;51.398;5.466;2023-10-31T12:49:19;3.63;;;1.90;;
9420;SDS011;4749;51.398;5.466;2023-10-31T12:52:00;6.90;;;2.15;;
9420;SDS011;4749;51.398;5.466;2023-10-31T12:54:31;5.93;;;1.90;;
9420;SDS011;4749;51.398;5.466;2023-10-31T12:59:34;4.55;;;1.90;;
9420;SDS011;4749;51.398;5.466;2023-10-31T13:02:05;2.35;;;1.38;;
9420;SDS011;4749;51.398;5.466;2023-10-31T13:04:34;4.63;;;1.75;;
9420;SDS011;4749;51.398;5.466;2023-10-31T13:07:03;5.22;;;1.63;;
9420;SDS011;4749;51.398;5.466;2023-10-31T13:09:32;2.67;;;1.30;;
9420;SDS011;4749;51.398;5.466;2023-10-31T13:12:03;4.05;;;1.35;;
9420;SDS011;4749;51.398;5.466;2023-10-31T13:14:32;3.88;;;1.30;;
9420;SDS011;4749;51.398;5.466;2023-10-31T13:17:00;4.70;;;1.30;;
9420;SDS011;4749;51.398;5.466;2023-10-31T13:19:30;2.58;;;1.13;;
9420;SDS011;4749;51.398;5.466;2023-10-31T13:21:57;3.15;;;1.20;;
9420;SDS011;4749;51.398;5.466;2023-10-31T13:24:25;3.97;;;1.58;;
9420;SDS011;4749;51.398;5.466;2023-10-31T13:26:52;3.00;;;1.33;;
9420;SDS011;4749;51.398;5.466;2023-10-31T13:29:19;4.43;;;1.38;;
9420;SDS011;4749;51.398;5.466;2023-10-31T13:31:48;3.05;;;1.40;;
9420;SDS011;4749;51.398;5.466;2023-10-31T13:34:15;2.75;;;1.50;;
9420;SDS011;4749;51.398;5.466;2023-10-31T13:36:43;5.38;;;2.00;;
9420;SDS011;4749;51.398;5.466;2023-10-31T13:39:10;4.82;;;1.42;;
9420;SDS011;4749;51.398;5.466;2023-10-31T13:41:38;4.65;;;1.27;;
9420;SDS011;4749;51.398;5.466;2023-10-31T13:44:05;4.72;;;1.40;;
9420;SDS011;4749;51.398;5.466;2023-10-31T13:46:33;2.80;;;1.30;;
9420;SDS011;4749;51.398;5.466;2023-10-31T13:49:00;5.20;;;1.25;;
9420;SDS011;4749;51.398;5.466;2023-10-31T13:51:27;4.68;;;1.60;;
9420;SDS011;4749;51.398;5.466;2023-10-31T13:53:54;3.60;;;1.38;;
9420;SDS011;4749;51.398;5.466;2023-10-31T13:56:23;2.83;;;1.10;;
9420;SDS011;4749;51.398;5.466;2023-10-31T13:58:50;4.43;;;1.60;;
9420;SDS011;4749;51.398;5.466;2023-10-31T14:01:18;5.18;;;1.40;;
9420;SDS011;4749;51.398;5.466;2023-10-31T14:03:51;6.53;;;1.48;;
9420;SDS011;4749;51.398;5.466;2023-10-31T14:06:18;4.45;;;1.20;;
9420;SDS011;4749;51.398;5.466;2023-10-31T14:08:46;6.93;;;1.40;;
9420;SDS011;4749;51.398;5.466;2023-10-31T14:11:13;6.82;;;1.80;;
9420;SDS011;4749;51.398;5.466;2023-10-31T14:13:41;4.07;;;1.42;;
9420;SDS011;4749;51.398;5.466;2023-10-31T14:16:10;7.28;;;1.40;;
9420;SDS011;4749;51.398;5.466;2023-10-31T14:18:38;4.85;;;1.50;;
9420;SDS011;4749;51.398;5.466;2023-10-31T14:21:07;5.75;;;1.70;;
9420;SDS011;4749;51.398;5.466;2023-10-31T14:23:37;6.13;;;1.70;;
9420;SDS011;4749;51.398;5.466;2023-10-31T14:26:04;8.80;;;2.63;;
9420;SDS011;4749;51.398;5.466;2023-10-31T14:28:31;5.50;;;2.10;;
9420;SDS011;4749;51.398;5.466;2023-10-31T14:30:58;5.10;;;2.28;;
9420;SDS011;4749;51.398;5.466;2023-10-31T14:33:26;6.63;;;2.40;;
9420;SDS011;4749;51.398;5.466;2023-10-31T14:35:53;6.38;;;2.67;;
9420;SDS011;4749;51.398;5.466;2023-10-31T14:38:20;6.43;;;2.15;;
9420;SDS011;4749;51.398;5.466;2023-10-31T14:40:47;6.20;;;3.10;;
9420;SDS011;4749;51.398;5.466;2023-10-31T14:43:15;6.78;;;2.53;;
9420;SDS011;4749;51.398;5.466;2023-10-31T14:45:45;8.85;;;3.42;;
9420;SDS011;4749;51.398;5.466;2023-10-31T14:48:12;7.55;;;2.83;;
9420;SDS011;4749;51.398;5.466;2023-10-31T14:50:39;6.03;;;2.60;;
9420;SDS011;4749;51.398;5.466;2023-10-31T14:53:07;6.10;;;2.88;;
9420;SDS011;4749;51.398;5.466;2023-10-31T14:55:36;6.40;;;3.08;;
9420;SDS011;4749;51.398;5.466;2023-10-31T14:58:04;4.78;;;2.83;;
9420;SDS011;4749;51.398;5.466;2023-10-31T15:00:31;4.95;;;2.90;;
9420;SDS011;4749;51.398;5.466;2023-10-31T15:03:00;6.13;;;2.33;;
9420;SDS011;4749;51.398;5.466;2023-10-31T15:05:28;9.38;;;3.47;;
9420;SDS011;4749;51.398;5.466;2023-10-31T15:07:55;8.13;;;3.03;;
9420;SDS011;4749;51.398;5.466;2023-10-31T15:10:27;8.82;;;2.72;;
9420;SDS011;4749;51.398;5.466;2023-10-31T15:12:55;5.55;;;2.97;;